Station: CLEVE AWS

  Atmospheric Gas Attenuation - ITU Rec 676-11   --------------- db/100km ---------------
Date Time Temp RH % AH g/m3 Dew Point Wind Direction Speed kph Gust kph Barometer mB Rainfall Since 9am 24GHz 47GHz 76GHz 122GHz 134GHz 241GHz
17 01:30 10.5 74 7.18 6.1 11 15 1020.4 0 16.7 24.8 36.0 94.1 84.1 287.9
17 01:20 9.6 76 6.96 5.6 9 9 1020.4 0 16.3 24.7 35.5 92.9 82.2 281.0
17 01:10 9.9 75 7 5.7 7 7 1020.6 0 16.3 24.7 35.6 93.0 82.4 281.8
17 01:00 10.1 75 7.09 5.9 11 15 1020.8 0 16.5 24.8 35.8 93.7 83.4 285.3
17 00:50 10.4 73 7.04 5.8 13 13 1020.8 0 16.4 24.6 35.5 92.8 82.4 281.9
17 00:40 10.6 72 7.03 5.8 13 15 1020.8 0 16.4 24.6 35.4 92.5 82.1 280.7
17 00:30 10.9 72 7.16 6.1 15 19 1021 0 16.6 24.7 35.8 93.5 83.4 285.6
17 00:20 10.8 73 7.22 6.2 15 17 1020.9 0 16.8 24.8 36.0 94.3 84.3 288.7
17 00:10 10.6 75 7.32 6.4 17 17 1021 0 17.0 25.0 36.5 95.6 85.9 294.1
17 00:00 10.7 75 7.37 6.5 15 19 1021.2 0 17.1 25.1 36.7 96.0 86.4 296.1
16 23:50 10.5 76 7.37 6.5 15 17 1021.1 0 17.1 25.1 36.8 96.3 86.7 296.8
16 23:40 10.6 76 7.42 6.6 15 17 1021.2 0 17.2 25.2 36.9 96.7 87.2 298.8
16 23:30 10.4 78 7.52 6.7 17 19 1021.4 0 17.4 25.4 37.5 98.0 88.8 304.3
16 23:20 10.5 77 7.47 6.6 15 17 1021.3 0 17.3 25.3 37.2 97.4 88.0 301.6
16 23:10 10.7 76 7.47 6.6 17 19 1021.4 0 17.3 25.3 37.1 97.1 87.8 300.8
16 23:00 10.3 77 7.38 6.5 17 20 1021.6 0 17.1 25.2 36.9 96.7 87.1 298.2
16 22:50 9.9 78 7.28 6.2 15 19 1021.6 0 16.9 25.2 36.7 96.1 86.2 295.0
16 22:40 10.2 76 7.23 6.2 15 19 1021.7 0 16.8 25.0 36.4 95.2 85.2 291.6
16 22:30 10 77 7.24 6.2 11 17 1021.8 0 16.8 25.1 36.5 95.5 85.5 292.8
16 22:20 10.3 76 7.28 6.3 9 11 1021.8 0 16.9 25.1 36.5 95.6 85.7 293.6
16 22:10 10.6 77 7.52 6.7 11 13 1021.9 0 17.4 25.4 37.4 97.8 88.6 303.7
16 22:00 9.4 82 7.42 6.5 13 17 1022.1 0 17.3 25.6 37.5 98.3 88.6 303.6
16 21:50 9.1 85 7.54 6.7 13 15 1022.1 0 17.5 25.9 38.2 100.0 90.6 310.5
16 21:40 9.5 85 7.74 7.1 13 13 1022.2 0 17.9 26.1 38.8 101.7 92.9 318.5
16 21:30 9.4 86 7.78 7.2 11 15 1022.3 0 18.0 26.2 39.0 102.2 93.6 320.8
16 21:20 9.3 85 7.64 6.9 11 11 1022.3 0 17.7 26.0 38.5 100.8 91.8 314.5
16 21:10 9.5 85 7.74 7.1 7 7 1022.3 0 17.9 26.1 38.8 101.7 92.9 318.5
16 21:00 9.5 84 7.65 6.9 9 13 1022.4 0 17.7 25.9 38.5 100.7 91.7 314.2
16 20:50 10.2 85 8.09 7.8 11 13 1022.3 0 18.7 26.5 39.9 104.6 96.8 332.4
16 20:40 10.2 89 8.47 8.5 13 15 1022.3 0 19.5 27.1 41.5 108.9 102.1 350.7
16 20:30 9.8 91 8.45 8.4 9 13 1022.4 0 19.5 27.2 41.7 109.2 102.3 351.6
16 20:20 10 93 8.74 8.9 9 9 1022.2 0 20.1 27.6 42.8 112.2 106.1 364.8
16 20:10 9.7 94 8.67 8.8 9 9 1022.3 0 19.9 27.6 42.6 111.9 105.5 362.8
16 20:00 8.8 93 8.1 7.7 9 9 1022.4 0 18.7 26.9 40.7 106.7 98.7 338.9
16 19:50 8.5 93 7.94 7.4 9 11 1022.3 0 18.4 26.7 40.2 105.2 96.9 332.4
16 19:40 9.4 95 8.59 8.6 9 9 1022.3 0 19.8 27.6 42.5 111.4 104.8 360.3
16 19:30 8.1 92 7.66 6.9 9 9 1022.4 0 17.8 26.4 39.2 102.6 93.5 320.4
16 19:20 9.3 93 8.36 8.2 7 9 1022.3 0 19.3 27.2 41.5 108.9 101.7 349.4
16 19:10 8.7 92 7.96 7.5 9 9 1022.3 0 18.5 26.7 40.1 105.2 96.9 332.5
16 19:00 9.3 92 8.27 8.1 9 13 1022.3 0 19.1 27.0 41.2 107.9 100.5 345.0
16 18:50 9.3 91 8.18 7.9 7 9 1022.2 0 18.9 26.9 40.8 106.9 99.2 340.6
16 18:40 9.8 92 8.54 8.6 9 9 1022 0 19.6 27.3 42.0 110.2 103.6 355.9
16 18:30 9.8 91 8.45 8.4 13 15 1022.1 0 19.5 27.2 41.6 109.2 102.3 351.5
16 18:20 9.9 90 8.41 8.3 13 15 1022 0 19.4 27.1 41.4 108.6 101.6 349.1
16 18:10 10.5 90 8.73 8.9 15 15 1022.2 0 20.0 27.4 42.5 111.4 105.3 362.0
16 18:00 10.8 88 8.7 8.9 11 13 1022.4 0 19.9 27.3 42.2 110.6 104.5 359.2
16 17:50 11.3 87 8.88 9.2 13 13 1022.3 0 20.3 27.5 42.7 112.0 106.3 365.6
16 17:40 11.7 85 8.89 9.3 15 15 1022.2 0 20.3 27.3 42.5 111.5 105.9 364.2
16 17:30 12.1 84 9.01 9.5 13 19 1022.3 0 20.5 27.4 42.8 112.3 107.0 368.1
16 17:20 12.5 83 9.13 9.7 17 19 1022.4 0 20.8 27.5 43.1 113.0 108.1 372.1
16 17:10 12.8 82 9.19 9.8 17 19 1022.4 0 20.9 27.5 43.2 113.3 108.5 373.5
16 17:00 13.3 80 9.24 9.9 17 20 1022.3 0 21.0 27.4 43.1 113.1 108.4 373.5
16 16:50 13.6 79 9.3 10 17 19 1022.2 0 21.1 27.4 43.2 113.3 108.8 374.9
16 16:40 13.8 79 9.41 10.2 19 20 1022.1 0 21.3 27.6 43.5 114.2 110.0 379.2
16 16:30 14.1 79 9.59 10.5 19 20 1022.2 0 21.7 27.8 44.1 115.8 112.1 386.3
16 16:20 14.3 78 9.58 10.5 19 20 1022.1 0 21.6 27.7 43.9 115.4 111.7 384.8
16 16:10 14.4 77 9.52 10.4 20 22 1022 0 21.5 27.6 43.6 114.6 110.7 381.5
16 16:00 14.5 77 9.58 10.5 20 24 1022.2 0 21.6 27.6 43.8 115.1 111.4 383.9
16 15:50 14.7 75 9.44 10.3 20 22 1022.1 0 21.3 27.3 43.1 113.3 109.2 376.2
16 15:40 15.2 71 9.22 10 22 24 1022.1 0 20.8 26.8 42.0 110.2 105.5 363.5
16 15:30 15.7 69 9.23 10 19 24 1022.2 0 20.8 26.7 41.8 109.6 105.0 361.7
16 15:20 15.8 70 9.42 10.3 19 20 1022 0 21.2 27.0 42.5 111.5 107.4 370.0
16 15:10 15.9 69 9.34 10.2 24 26 1022.1 0 21.1 26.8 42.1 110.5 106.2 365.9
16 15:00 16.3 67 9.29 10.2 19 30 1022.2 0 20.9 26.6 41.7 109.4 105.0 361.7
16 14:50 17 67 9.69 10.8 15 17 1022 0 21.7 27.0 42.9 112.7 109.3 376.9
16 14:40 16.8 66 9.44 10.4 15 19 1022 0 21.2 26.7 42.0 110.3 106.3 366.3
16 14:30 16.6 66 9.32 10.2 17 24 1022 0 21.0 26.6 41.6 109.3 104.9 361.7
16 14:20 17 67 9.69 10.8 15 19 1021.9 0 21.7 27.0 42.9 112.7 109.3 376.8
16 14:10 16.8 68 9.72 10.9 19 22 1021.9 0 21.8 27.1 43.1 113.3 109.9 379.2
16 14:00 16.7 68 9.66 10.8 13 20 1022.1 0 21.7 27.1 43.0 112.8 109.3 376.9
16 13:50 16.5 68 9.55 10.6 13 17 1021.9 0 21.5 27.0 42.6 111.9 108.1 372.7
16 13:40 16.3 70 9.71 10.8 17 19 1021.9 0 21.8 27.3 43.4 113.9 110.5 381.1
16 13:30 16.4 70 9.77 10.9 17 22 1022.2 0 21.9 27.4 43.6 114.4 111.2 383.5
16 13:20 16.3 70 9.71 10.8 15 17 1022.3 0 21.8 27.3 43.4 113.9 110.6 381.3
16 13:10 16.4 70 9.77 10.9 17 20 1022.5 0 21.9 27.4 43.6 114.4 111.2 383.6
16 13:00 16.2 67 9.24 10.1 13 17 1022.9 0 20.8 26.6 41.6 109.1 104.5 360.1
16 12:50 16.2 67 9.24 10.1 15 17 1022.8 0 20.8 26.6 41.6 109.1 104.5 360.1
16 12:40 16.1 69 9.46 10.4 17 19 1023 0 21.3 27.0 42.5 111.6 107.6 370.8
16 12:30 16.2 70 9.65 10.7 13 19 1023.4 0 21.7 27.3 43.2 113.5 110.0 379.3
16 12:20 16.1 71 9.73 10.8 11 15 1023.6 0 21.9 27.4 43.6 114.6 111.2 383.6
16 12:10 15.8 71 9.56 10.6 15 17 1023.7 0 21.5 27.3 43.1 113.2 109.4 377.1
16 12:00 15.6 71 9.44 10.4 13 19 1024.1 0 21.3 27.1 42.7 112.2 108.1 372.5
16 11:50 15.5 73 9.65 10.7 15 17 1024 0 21.7 27.5 43.7 114.6 111.0 382.8
16 11:40 15.4 75 9.85 11 15 19 1024.1 0 22.2 27.9 44.5 117.0 113.9 392.8
16 11:30 15.1 75 9.68 10.7 15 20 1024.4 0 21.8 27.7 44.0 115.6 112.1 386.4
16 11:20 15.2 74 9.6 10.6 15 19 1024.4 0 21.6 27.5 43.6 114.5 110.8 382.1
16 11:10 15 75 9.62 10.6 13 15 1024.5 0 21.7 27.6 43.8 115.1 111.4 384.0
16 11:00 14.5 73 9.08 9.7 13 19 1024.7 0 20.6 26.9 41.9 109.9 104.8 361.0
16 10:50 14.7 75 9.44 10.3 15 17 1024.7 0 21.3 27.4 43.3 113.6 109.4 377.0
16 10:40 14.5 75 9.33 10.1 13 15 1024.9 0 21.1 27.3 42.9 112.7 108.2 372.8
16 10:30 14.1 78 9.47 10.3 9 13 1025.2 0 21.4 27.7 43.7 114.8 110.7 381.5
16 10:20 13.6 82 9.65 10.6 11 11 1025.2 0 21.8 28.2 44.8 117.6 113.9 392.6
16 10:10 13.1 82 9.36 10.1 7 9 1025.2 0 21.2 27.8 43.8 115.1 110.6 381.1
16 10:00 13.5 81 9.47 10.3 7 13 1025.3 0 21.4 27.9 44.1 115.7 111.6 384.5
16 09:50 13.6 79 9.3 10 7 9 1025.2 0 21.1 27.6 43.3 113.7 109.1 375.8
16 09:40 13.8 82 9.77 10.8 6 7 1025.3 0 22.1 28.3 45.2 118.6 115.3 397.5
16 09:30 13.3 86 9.94 11 6 7 1025.3 0 22.5 28.8 46.2 121.3 118.4 408.4
16 09:20 12.6 89 9.85 10.8 0 0 1025.2 0 22.3 28.8 46.2 121.4 118.2 407.6
16 09:10 12 90 9.59 10.4 6 7 1025.2 0 21.8 28.6 45.4 119.3 115.5 397.9
16 09:00 12 91 9.7 10.6 7 9 1025.2 0 22.0 28.8 45.9 120.6 117.0 403.3

Last Refresh: 17-Jul-2020 01:43:20

Most of the information presented on this site is sourced from the Bureau of Meteorology.  Copyright in all material sourced from the Bureau of Meteorology resides with the Commonwealth of Australia.